sensor_id;sensor_type;location;lat;lon;timestamp;P1;durP1;ratioP1;P2;durP2;ratioP2
17510;SDS011;8873;48.818;9.422;2022-12-29T00:01:56;6.97;;;4.80;;
17510;SDS011;8873;48.818;9.422;2022-12-29T00:04:34;12.27;;;5.65;;
17510;SDS011;8873;48.818;9.422;2022-12-29T00:07:02;10.73;;;5.65;;
17510;SDS011;8873;48.818;9.422;2022-12-29T00:09:30;8.98;;;5.32;;
17510;SDS011;8873;48.818;9.422;2022-12-29T00:11:58;9.87;;;5.60;;
17510;SDS011;8873;48.818;9.422;2022-12-29T00:14:27;14.02;;;5.72;;
17510;SDS011;8873;48.818;9.422;2022-12-29T00:17:13;7.78;;;5.53;;
17510;SDS011;8873;48.818;9.422;2022-12-29T00:19:40;10.68;;;5.95;;
17510;SDS011;8873;48.818;9.422;2022-12-29T00:22:26;9.07;;;5.60;;
17510;SDS011;8873;48.818;9.422;2022-12-29T00:25:11;9.18;;;5.32;;
17510;SDS011;8873;48.818;9.422;2022-12-29T00:27:57;11.05;;;5.82;;
17510;SDS011;8873;48.818;9.422;2022-12-29T00:30:52;9.60;;;5.50;;
17510;SDS011;8873;48.818;9.422;2022-12-29T00:33:37;12.35;;;5.70;;
17510;SDS011;8873;48.818;9.422;2022-12-29T00:36:23;7.97;;;5.45;;
17510;SDS011;8873;48.818;9.422;2022-12-29T00:38:51;11.98;;;5.78;;
17510;SDS011;8873;48.818;9.422;2022-12-29T00:41:37;11.32;;;5.90;;
17510;SDS011;8873;48.818;9.422;2022-12-29T00:44:22;10.45;;;6.22;;
17510;SDS011;8873;48.818;9.422;2022-12-29T00:46:51;9.00;;;5.38;;
17510;SDS011;8873;48.818;9.422;2022-12-29T00:49:19;10.70;;;5.53;;
17510;SDS011;8873;48.818;9.422;2022-12-29T00:51:58;8.63;;;5.50;;
17510;SDS011;8873;48.818;9.422;2022-12-29T00:54:26;10.05;;;5.18;;
17510;SDS011;8873;48.818;9.422;2022-12-29T00:56:54;8.70;;;4.78;;
17510;SDS011;8873;48.818;9.422;2022-12-29T00:59:22;7.57;;;4.70;;
17510;SDS011;8873;48.818;9.422;2022-12-29T01:01:54;13.18;;;5.88;;
17510;SDS011;8873;48.818;9.422;2022-12-29T01:04:23;8.80;;;5.15;;
17510;SDS011;8873;48.818;9.422;2022-12-29T01:06:50;7.38;;;4.80;;
17510;SDS011;8873;48.818;9.422;2022-12-29T01:09:18;9.52;;;5.30;;
17510;SDS011;8873;48.818;9.422;2022-12-29T01:12:03;7.97;;;4.95;;
17510;SDS011;8873;48.818;9.422;2022-12-29T01:14:31;8.32;;;5.03;;
17510;SDS011;8873;48.818;9.422;2022-12-29T01:17:00;10.43;;;5.50;;
17510;SDS011;8873;48.818;9.422;2022-12-29T01:19:28;6.28;;;4.80;;
17510;SDS011;8873;48.818;9.422;2022-12-29T01:21:56;8.55;;;5.22;;
17510;SDS011;8873;48.818;9.422;2022-12-29T01:24:23;12.00;;;4.88;;
17510;SDS011;8873;48.818;9.422;2022-12-29T01:26:52;6.68;;;4.50;;
17510;SDS011;8873;48.818;9.422;2022-12-29T01:29:20;9.02;;;4.22;;
17510;SDS011;8873;48.818;9.422;2022-12-29T01:31:48;13.85;;;5.03;;
17510;SDS011;8873;48.818;9.422;2022-12-29T01:34:17;8.95;;;4.80;;
17510;SDS011;8873;48.818;9.422;2022-12-29T01:36:45;9.68;;;4.97;;
17510;SDS011;8873;48.818;9.422;2022-12-29T01:39:13;12.60;;;4.90;;
17510;SDS011;8873;48.818;9.422;2022-12-29T01:41:41;9.10;;;5.10;;
17510;SDS011;8873;48.818;9.422;2022-12-29T01:46:55;9.05;;;4.28;;
17510;SDS011;8873;48.818;9.422;2022-12-29T01:49:24;9.82;;;5.30;;
17510;SDS011;8873;48.818;9.422;2022-12-29T01:51:55;10.68;;;4.95;;
17510;SDS011;8873;48.818;9.422;2022-12-29T01:54:26;8.32;;;4.63;;
17510;SDS011;8873;48.818;9.422;2022-12-29T01:56:55;11.73;;;5.43;;
17510;SDS011;8873;48.818;9.422;2022-12-29T01:59:24;10.15;;;4.93;;
17510;SDS011;8873;48.818;9.422;2022-12-29T02:01:53;11.52;;;5.63;;
17510;SDS011;8873;48.818;9.422;2022-12-29T02:04:21;11.68;;;5.30;;
17510;SDS011;8873;48.818;9.422;2022-12-29T02:06:51;2.97;;;2.67;;
17510;SDS011;8873;48.818;9.422;2022-12-29T02:09:20;7.78;;;5.00;;
17510;SDS011;8873;48.818;9.422;2022-12-29T02:11:47;11.10;;;4.60;;
17510;SDS011;8873;48.818;9.422;2022-12-29T02:14:15;6.00;;;4.35;;
17510;SDS011;8873;48.818;9.422;2022-12-29T02:16:48;8.32;;;4.93;;
17510;SDS011;8873;48.818;9.422;2022-12-29T02:22:09;8.48;;;4.65;;
17510;SDS011;8873;48.818;9.422;2022-12-29T02:27:29;16.42;;;4.68;;
17510;SDS011;8873;48.818;9.422;2022-12-29T02:30:03;9.23;;;4.78;;
17510;SDS011;8873;48.818;9.422;2022-12-29T02:32:36;7.93;;;4.35;;
17510;SDS011;8873;48.818;9.422;2022-12-29T02:35:07;5.45;;;3.58;;
17510;SDS011;8873;48.818;9.422;2022-12-29T02:37:39;3.92;;;3.00;;
17510;SDS011;8873;48.818;9.422;2022-12-29T02:40:12;6.07;;;2.83;;
17510;SDS011;8873;48.818;9.422;2022-12-29T02:42:46;3.95;;;2.40;;
17510;SDS011;8873;48.818;9.422;2022-12-29T02:45:15;3.63;;;2.53;;
17510;SDS011;8873;48.818;9.422;2022-12-29T02:47:47;5.32;;;2.47;;
17510;SDS011;8873;48.818;9.422;2022-12-29T02:50:18;5.82;;;2.97;;
17510;SDS011;8873;48.818;9.422;2022-12-29T02:52:48;4.13;;;2.60;;
17510;SDS011;8873;48.818;9.422;2022-12-29T02:55:16;3.72;;;2.50;;
17510;SDS011;8873;48.818;9.422;2022-12-29T02:57:43;3.58;;;2.67;;
17510;SDS011;8873;48.818;9.422;2022-12-29T03:00:11;6.32;;;2.78;;
17510;SDS011;8873;48.818;9.422;2022-12-29T03:02:50;3.33;;;2.40;;
17510;SDS011;8873;48.818;9.422;2022-12-29T03:05:32;2.72;;;2.53;;
17510;SDS011;8873;48.818;9.422;2022-12-29T03:08:04;3.47;;;2.40;;
17510;SDS011;8873;48.818;9.422;2022-12-29T03:10:36;3.58;;;2.00;;
17510;SDS011;8873;48.818;9.422;2022-12-29T03:13:07;3.20;;;2.10;;
17510;SDS011;8873;48.818;9.422;2022-12-29T03:16:05;2.03;;;1.83;;
17510;SDS011;8873;48.818;9.422;2022-12-29T03:18:39;2.63;;;1.73;;
17510;SDS011;8873;48.818;9.422;2022-12-29T03:21:09;3.67;;;1.60;;
17510;SDS011;8873;48.818;9.422;2022-12-29T03:23:40;4.43;;;1.67;;
17510;SDS011;8873;48.818;9.422;2022-12-29T03:26:12;7.35;;;1.60;;
17510;SDS011;8873;48.818;9.422;2022-12-29T03:28:41;2.83;;;1.60;;
17510;SDS011;8873;48.818;9.422;2022-12-29T03:31:11;2.90;;;1.58;;
17510;SDS011;8873;48.818;9.422;2022-12-29T03:33:41;2.50;;;1.50;;
17510;SDS011;8873;48.818;9.422;2022-12-29T03:36:10;1.40;;;1.30;;
17510;SDS011;8873;48.818;9.422;2022-12-29T03:38:40;2.35;;;1.50;;
17510;SDS011;8873;48.818;9.422;2022-12-29T03:41:10;1.45;;;1.35;;
17510;SDS011;8873;48.818;9.422;2022-12-29T03:43:39;4.95;;;1.42;;
17510;SDS011;8873;48.818;9.422;2022-12-29T03:46:06;1.75;;;1.45;;
17510;SDS011;8873;48.818;9.422;2022-12-29T03:48:34;2.20;;;1.40;;
17510;SDS011;8873;48.818;9.422;2022-12-29T03:51:03;1.60;;;1.30;;
17510;SDS011;8873;48.818;9.422;2022-12-29T03:53:31;3.10;;;1.55;;
17510;SDS011;8873;48.818;9.422;2022-12-29T03:55:58;6.47;;;1.67;;
17510;SDS011;8873;48.818;9.422;2022-12-29T03:58:26;3.90;;;1.50;;
17510;SDS011;8873;48.818;9.422;2022-12-29T04:00:53;3.47;;;1.63;;
17510;SDS011;8873;48.818;9.422;2022-12-29T04:03:21;1.40;;;1.35;;
17510;SDS011;8873;48.818;9.422;2022-12-29T04:05:48;2.15;;;1.25;;
17510;SDS011;8873;48.818;9.422;2022-12-29T04:08:17;3.03;;;1.30;;
17510;SDS011;8873;48.818;9.422;2022-12-29T04:10:45;1.77;;;1.67;;
17510;SDS011;8873;48.818;9.422;2022-12-29T04:13:12;2.85;;;1.70;;
17510;SDS011;8873;48.818;9.422;2022-12-29T04:15:40;1.35;;;1.25;;
17510;SDS011;8873;48.818;9.422;2022-12-29T04:18:08;2.10;;;1.60;;
17510;SDS011;8873;48.818;9.422;2022-12-29T04:20:36;4.15;;;2.08;;
17510;SDS011;8873;48.818;9.422;2022-12-29T04:23:22;1.40;;;1.30;;
17510;SDS011;8873;48.818;9.422;2022-12-29T04:25:50;2.78;;;1.52;;
17510;SDS011;8873;48.818;9.422;2022-12-29T04:28:18;1.75;;;1.52;;
17510;SDS011;8873;48.818;9.422;2022-12-29T04:30:45;1.95;;;1.67;;
17510;SDS011;8873;48.818;9.422;2022-12-29T04:33:14;4.05;;;1.40;;
17510;SDS011;8873;48.818;9.422;2022-12-29T04:35:44;3.45;;;1.50;;
17510;SDS011;8873;48.818;9.422;2022-12-29T04:38:12;1.50;;;1.35;;
17510;SDS011;8873;48.818;9.422;2022-12-29T04:40:41;2.38;;;1.50;;
17510;SDS011;8873;48.818;9.422;2022-12-29T04:43:09;1.45;;;1.30;;
17510;SDS011;8873;48.818;9.422;2022-12-29T04:45:37;2.35;;;1.58;;
17510;SDS011;8873;48.818;9.422;2022-12-29T04:48:05;2.05;;;1.40;;
17510;SDS011;8873;48.818;9.422;2022-12-29T04:50:32;3.38;;;1.58;;
17510;SDS011;8873;48.818;9.422;2022-12-29T04:53:00;3.25;;;1.70;;
17510;SDS011;8873;48.818;9.422;2022-12-29T04:55:28;6.95;;;1.90;;
17510;SDS011;8873;48.818;9.422;2022-12-29T04:57:57;5.28;;;1.60;;
17510;SDS011;8873;48.818;9.422;2022-12-29T05:00:25;2.50;;;1.70;;
17510;SDS011;8873;48.818;9.422;2022-12-29T05:02:52;3.33;;;1.60;;
17510;SDS011;8873;48.818;9.422;2022-12-29T05:05:20;4.00;;;1.95;;
17510;SDS011;8873;48.818;9.422;2022-12-29T05:07:48;4.40;;;2.25;;
17510;SDS011;8873;48.818;9.422;2022-12-29T05:10:15;4.05;;;1.73;;
17510;SDS011;8873;48.818;9.422;2022-12-29T05:12:43;5.07;;;2.25;;
17510;SDS011;8873;48.818;9.422;2022-12-29T05:15:12;4.03;;;1.65;;
17510;SDS011;8873;48.818;9.422;2022-12-29T05:17:40;1.77;;;1.50;;
17510;SDS011;8873;48.818;9.422;2022-12-29T05:20:08;3.65;;;1.60;;
17510;SDS011;8873;48.818;9.422;2022-12-29T05:22:35;3.22;;;1.80;;
17510;SDS011;8873;48.818;9.422;2022-12-29T05:25:03;3.00;;;1.70;;
17510;SDS011;8873;48.818;9.422;2022-12-29T05:27:31;2.00;;;1.70;;
17510;SDS011;8873;48.818;9.422;2022-12-29T05:29:59;4.68;;;1.90;;
17510;SDS011;8873;48.818;9.422;2022-12-29T05:32:28;2.08;;;1.45;;
17510;SDS011;8873;48.818;9.422;2022-12-29T05:34:55;1.85;;;1.70;;
17510;SDS011;8873;48.818;9.422;2022-12-29T05:37:23;4.65;;;1.90;;
17510;SDS011;8873;48.818;9.422;2022-12-29T05:39:51;6.03;;;1.83;;
17510;SDS011;8873;48.818;9.422;2022-12-29T05:42:18;3.83;;;1.60;;
17510;SDS011;8873;48.818;9.422;2022-12-29T05:44:46;2.72;;;1.92;;
17510;SDS011;8873;48.818;9.422;2022-12-29T05:47:16;2.50;;;1.45;;
17510;SDS011;8873;48.818;9.422;2022-12-29T05:49:45;2.55;;;1.80;;
17510;SDS011;8873;48.818;9.422;2022-12-29T05:52:13;1.67;;;1.42;;
17510;SDS011;8873;48.818;9.422;2022-12-29T05:54:40;3.03;;;1.38;;
17510;SDS011;8873;48.818;9.422;2022-12-29T05:57:08;2.28;;;1.42;;
17510;SDS011;8873;48.818;9.422;2022-12-29T05:59:36;1.63;;;1.63;;
17510;SDS011;8873;48.818;9.422;2022-12-29T06:02:03;1.70;;;1.60;;
17510;SDS011;8873;48.818;9.422;2022-12-29T06:04:31;6.82;;;2.85;;
17510;SDS011;8873;48.818;9.422;2022-12-29T06:07:00;2.10;;;1.65;;
17510;SDS011;8873;48.818;9.422;2022-12-29T06:09:28;2.58;;;1.70;;
17510;SDS011;8873;48.818;9.422;2022-12-29T06:11:55;3.88;;;2.17;;
17510;SDS011;8873;48.818;9.422;2022-12-29T06:14:23;1.63;;;1.40;;
17510;SDS011;8873;48.818;9.422;2022-12-29T06:16:50;3.50;;;2.15;;
17510;SDS011;8873;48.818;9.422;2022-12-29T06:19:18;2.65;;;1.92;;
17510;SDS011;8873;48.818;9.422;2022-12-29T06:21:46;2.00;;;1.70;;
17510;SDS011;8873;48.818;9.422;2022-12-29T06:24:14;4.65;;;1.80;;
17510;SDS011;8873;48.818;9.422;2022-12-29T06:26:42;2.35;;;1.40;;
17510;SDS011;8873;48.818;9.422;2022-12-29T06:29:10;1.58;;;1.58;;
17510;SDS011;8873;48.818;9.422;2022-12-29T06:31:39;3.78;;;1.50;;
17510;SDS011;8873;48.818;9.422;2022-12-29T06:34:07;1.98;;;1.70;;
17510;SDS011;8873;48.818;9.422;2022-12-29T06:36:35;3.08;;;1.83;;
17510;SDS011;8873;48.818;9.422;2022-12-29T06:39:02;3.50;;;1.60;;
17510;SDS011;8873;48.818;9.422;2022-12-29T06:41:31;1.50;;;1.50;;
17510;SDS011;8873;48.818;9.422;2022-12-29T06:43:59;1.95;;;1.67;;
17510;SDS011;8873;48.818;9.422;2022-12-29T06:46:26;2.45;;;1.58;;
17510;SDS011;8873;48.818;9.422;2022-12-29T06:48:54;2.33;;;1.60;;
17510;SDS011;8873;48.818;9.422;2022-12-29T06:51:22;4.13;;;1.63;;
17510;SDS011;8873;48.818;9.422;2022-12-29T06:53:49;1.65;;;1.55;;
17510;SDS011;8873;48.818;9.422;2022-12-29T06:56:17;5.47;;;2.00;;
17510;SDS011;8873;48.818;9.422;2022-12-29T06:58:46;1.58;;;1.48;;
17510;SDS011;8873;48.818;9.422;2022-12-29T07:01:14;3.70;;;1.70;;
17510;SDS011;8873;48.818;9.422;2022-12-29T07:03:41;1.75;;;1.63;;
17510;SDS011;8873;48.818;9.422;2022-12-29T07:06:09;2.33;;;2.05;;
17510;SDS011;8873;48.818;9.422;2022-12-29T07:08:37;4.40;;;1.63;;
17510;SDS011;8873;48.818;9.422;2022-12-29T07:11:04;2.88;;;1.40;;
17510;SDS011;8873;48.818;9.422;2022-12-29T07:13:32;2.10;;;1.60;;
17510;SDS011;8873;48.818;9.422;2022-12-29T07:16:04;1.35;;;1.35;;
17510;SDS011;8873;48.818;9.422;2022-12-29T07:18:31;1.75;;;1.45;;
17510;SDS011;8873;48.818;9.422;2022-12-29T07:20:59;3.10;;;1.77;;
17510;SDS011;8873;48.818;9.422;2022-12-29T07:23:27;2.00;;;1.40;;
17510;SDS011;8873;48.818;9.422;2022-12-29T07:25:58;1.40;;;1.40;;
17510;SDS011;8873;48.818;9.422;2022-12-29T07:28:26;3.42;;;1.40;;
17510;SDS011;8873;48.818;9.422;2022-12-29T07:30:54;7.10;;;1.70;;
17510;SDS011;8873;48.818;9.422;2022-12-29T07:33:23;4.68;;;1.83;;
17510;SDS011;8873;48.818;9.422;2022-12-29T07:35:51;1.52;;;1.42;;
17510;SDS011;8873;48.818;9.422;2022-12-29T07:38:18;4.78;;;1.67;;
17510;SDS011;8873;48.818;9.422;2022-12-29T07:40:46;3.75;;;1.48;;
17510;SDS011;8873;48.818;9.422;2022-12-29T07:43:13;3.22;;;1.33;;
17510;SDS011;8873;48.818;9.422;2022-12-29T07:45:41;2.65;;;1.65;;
17510;SDS011;8873;48.818;9.422;2022-12-29T07:48:09;2.13;;;2.03;;
17510;SDS011;8873;48.818;9.422;2022-12-29T07:50:38;2.28;;;1.80;;
17510;SDS011;8873;48.818;9.422;2022-12-29T07:53:06;4.55;;;1.70;;
17510;SDS011;8873;48.818;9.422;2022-12-29T07:55:33;2.65;;;1.40;;
17510;SDS011;8873;48.818;9.422;2022-12-29T07:58:01;1.60;;;1.50;;
17510;SDS011;8873;48.818;9.422;2022-12-29T08:00:29;1.50;;;1.40;;
17510;SDS011;8873;48.818;9.422;2022-12-29T08:02:56;2.45;;;1.90;;
17510;SDS011;8873;48.818;9.422;2022-12-29T08:05:24;1.75;;;1.65;;
17510;SDS011;8873;48.818;9.422;2022-12-29T08:07:53;2.78;;;1.80;;
17510;SDS011;8873;48.818;9.422;2022-12-29T08:10:20;3.53;;;1.63;;
17510;SDS011;8873;48.818;9.422;2022-12-29T08:12:49;1.55;;;1.27;;
17510;SDS011;8873;48.818;9.422;2022-12-29T08:15:19;2.38;;;1.48;;
17510;SDS011;8873;48.818;9.422;2022-12-29T08:17:55;7.65;;;2.42;;
17510;SDS011;8873;48.818;9.422;2022-12-29T08:20:23;1.77;;;1.40;;
17510;SDS011;8873;48.818;9.422;2022-12-29T08:22:53;2.00;;;1.80;;
17510;SDS011;8873;48.818;9.422;2022-12-29T08:25:20;2.22;;;1.60;;
17510;SDS011;8873;48.818;9.422;2022-12-29T08:27:49;1.60;;;1.40;;
17510;SDS011;8873;48.818;9.422;2022-12-29T08:30:17;1.70;;;1.60;;
17510;SDS011;8873;48.818;9.422;2022-12-29T08:32:45;1.50;;;1.40;;
17510;SDS011;8873;48.818;9.422;2022-12-29T08:35:12;1.55;;;1.40;;
17510;SDS011;8873;48.818;9.422;2022-12-29T08:37:40;2.33;;;1.73;;
17510;SDS011;8873;48.818;9.422;2022-12-29T08:40:09;1.50;;;1.40;;
17510;SDS011;8873;48.818;9.422;2022-12-29T08:42:37;3.25;;;1.63;;
17510;SDS011;8873;48.818;9.422;2022-12-29T08:45:05;1.67;;;1.58;;
17510;SDS011;8873;48.818;9.422;2022-12-29T08:47:34;3.65;;;1.60;;
17510;SDS011;8873;48.818;9.422;2022-12-29T08:50:02;1.58;;;1.48;;
17510;SDS011;8873;48.818;9.422;2022-12-29T08:52:30;1.60;;;1.50;;
17510;SDS011;8873;48.818;9.422;2022-12-29T08:54:58;1.85;;;1.75;;
17510;SDS011;8873;48.818;9.422;2022-12-29T08:57:26;3.20;;;1.60;;
17510;SDS011;8873;48.818;9.422;2022-12-29T08:59:54;2.30;;;1.52;;
17510;SDS011;8873;48.818;9.422;2022-12-29T09:02:22;2.55;;;1.52;;
17510;SDS011;8873;48.818;9.422;2022-12-29T09:04:50;2.30;;;1.60;;
17510;SDS011;8873;48.818;9.422;2022-12-29T09:07:18;1.73;;;1.48;;
17510;SDS011;8873;48.818;9.422;2022-12-29T09:09:46;2.53;;;1.90;;
17510;SDS011;8873;48.818;9.422;2022-12-29T09:12:13;4.68;;;2.15;;
17510;SDS011;8873;48.818;9.422;2022-12-29T09:14:42;2.03;;;1.65;;
17510;SDS011;8873;48.818;9.422;2022-12-29T09:17:10;1.70;;;1.60;;
17510;SDS011;8873;48.818;9.422;2022-12-29T09:19:56;1.60;;;1.50;;
17510;SDS011;8873;48.818;9.422;2022-12-29T09:22:23;3.03;;;1.73;;
17510;SDS011;8873;48.818;9.422;2022-12-29T09:24:51;2.10;;;1.70;;
17510;SDS011;8873;48.818;9.422;2022-12-29T09:27:19;2.72;;;1.45;;
17510;SDS011;8873;48.818;9.422;2022-12-29T09:29:48;1.98;;;1.75;;
17510;SDS011;8873;48.818;9.422;2022-12-29T09:32:15;3.60;;;1.67;;
17510;SDS011;8873;48.818;9.422;2022-12-29T09:34:45;2.15;;;1.65;;
17510;SDS011;8873;48.818;9.422;2022-12-29T09:37:12;2.63;;;1.67;;
17510;SDS011;8873;48.818;9.422;2022-12-29T09:39:40;1.83;;;1.58;;
17510;SDS011;8873;48.818;9.422;2022-12-29T09:42:08;1.60;;;1.42;;
17510;SDS011;8873;48.818;9.422;2022-12-29T09:44:44;1.70;;;1.60;;
17510;SDS011;8873;48.818;9.422;2022-12-29T09:47:14;1.40;;;1.40;;
17510;SDS011;8873;48.818;9.422;2022-12-29T09:49:44;3.08;;;1.50;;
17510;SDS011;8873;48.818;9.422;2022-12-29T09:52:13;2.33;;;1.30;;
17510;SDS011;8873;48.818;9.422;2022-12-29T09:54:43;3.47;;;1.60;;
17510;SDS011;8873;48.818;9.422;2022-12-29T09:57:25;6.47;;;3.05;;
17510;SDS011;8873;48.818;9.422;2022-12-29T09:59:55;2.08;;;1.60;;
17510;SDS011;8873;48.818;9.422;2022-12-29T10:02:29;2.65;;;1.60;;
17510;SDS011;8873;48.818;9.422;2022-12-29T10:04:58;2.78;;;2.10;;
17510;SDS011;8873;48.818;9.422;2022-12-29T10:07:28;2.13;;;1.77;;
17510;SDS011;8873;48.818;9.422;2022-12-29T10:10:00;4.18;;;2.67;;
17510;SDS011;8873;48.818;9.422;2022-12-29T10:12:31;3.25;;;1.90;;
17510;SDS011;8873;48.818;9.422;2022-12-29T10:15:05;2.17;;;1.73;;
17510;SDS011;8873;48.818;9.422;2022-12-29T10:17:39;8.48;;;3.50;;
17510;SDS011;8873;48.818;9.422;2022-12-29T10:20:16;7.50;;;2.35;;
17510;SDS011;8873;48.818;9.422;2022-12-29T10:22:49;5.60;;;2.13;;
17510;SDS011;8873;48.818;9.422;2022-12-29T10:25:22;1.90;;;1.60;;
17510;SDS011;8873;48.818;9.422;2022-12-29T10:27:55;2.50;;;2.05;;
17510;SDS011;8873;48.818;9.422;2022-12-29T10:30:25;4.50;;;3.63;;
17510;SDS011;8873;48.818;9.422;2022-12-29T10:32:54;4.47;;;3.30;;
17510;SDS011;8873;48.818;9.422;2022-12-29T10:35:24;5.65;;;4.15;;
17510;SDS011;8873;48.818;9.422;2022-12-29T10:37:53;10.02;;;4.30;;
17510;SDS011;8873;48.818;9.422;2022-12-29T10:40:24;2.20;;;1.75;;
17510;SDS011;8873;48.818;9.422;2022-12-29T10:42:53;5.60;;;1.88;;
17510;SDS011;8873;48.818;9.422;2022-12-29T10:45:21;2.00;;;1.60;;
17510;SDS011;8873;48.818;9.422;2022-12-29T10:47:52;2.10;;;1.88;;
17510;SDS011;8873;48.818;9.422;2022-12-29T10:50:22;1.70;;;1.60;;
17510;SDS011;8873;48.818;9.422;2022-12-29T10:52:50;4.68;;;1.65;;
17510;SDS011;8873;48.818;9.422;2022-12-29T10:55:19;1.80;;;1.65;;
17510;SDS011;8873;48.818;9.422;2022-12-29T10:57:49;2.28;;;1.90;;
17510;SDS011;8873;48.818;9.422;2022-12-29T11:00:17;2.05;;;1.50;;
17510;SDS011;8873;48.818;9.422;2022-12-29T11:02:54;2.30;;;1.50;;
17510;SDS011;8873;48.818;9.422;2022-12-29T11:05:27;3.28;;;1.80;;
17510;SDS011;8873;48.818;9.422;2022-12-29T11:07:58;2.50;;;1.63;;
17510;SDS011;8873;48.818;9.422;2022-12-29T11:10:30;4.15;;;1.60;;
17510;SDS011;8873;48.818;9.422;2022-12-29T11:12:58;1.75;;;1.50;;
17510;SDS011;8873;48.818;9.422;2022-12-29T11:15:26;2.50;;;1.65;;
17510;SDS011;8873;48.818;9.422;2022-12-29T11:17:56;8.52;;;1.80;;
17510;SDS011;8873;48.818;9.422;2022-12-29T11:20:29;2.83;;;1.73;;
17510;SDS011;8873;48.818;9.422;2022-12-29T11:22:56;4.28;;;1.98;;
17510;SDS011;8873;48.818;9.422;2022-12-29T11:25:24;2.47;;;1.70;;
17510;SDS011;8873;48.818;9.422;2022-12-29T11:27:55;2.95;;;1.73;;
17510;SDS011;8873;48.818;9.422;2022-12-29T11:30:23;3.40;;;2.10;;
17510;SDS011;8873;48.818;9.422;2022-12-29T11:32:51;2.85;;;1.95;;
17510;SDS011;8873;48.818;9.422;2022-12-29T11:35:29;4.93;;;1.90;;
17510;SDS011;8873;48.818;9.422;2022-12-29T11:37:58;2.20;;;2.00;;
17510;SDS011;8873;48.818;9.422;2022-12-29T11:40:27;5.80;;;1.83;;
17510;SDS011;8873;48.818;9.422;2022-12-29T11:42:55;3.88;;;1.77;;
17510;SDS011;8873;48.818;9.422;2022-12-29T11:45:24;2.92;;;2.00;;
17510;SDS011;8873;48.818;9.422;2022-12-29T11:47:53;2.25;;;1.90;;
17510;SDS011;8873;48.818;9.422;2022-12-29T11:50:22;3.53;;;1.75;;
17510;SDS011;8873;48.818;9.422;2022-12-29T11:52:56;2.08;;;1.50;;
17510;SDS011;8873;48.818;9.422;2022-12-29T11:55:26;4.82;;;1.80;;
17510;SDS011;8873;48.818;9.422;2022-12-29T11:57:54;3.72;;;1.83;;
17510;SDS011;8873;48.818;9.422;2022-12-29T12:00:23;2.95;;;1.60;;
17510;SDS011;8873;48.818;9.422;2022-12-29T12:02:53;4.13;;;1.60;;
17510;SDS011;8873;48.818;9.422;2022-12-29T12:05:24;3.95;;;1.80;;
17510;SDS011;8873;48.818;9.422;2022-12-29T12:07:55;1.92;;;1.70;;
17510;SDS011;8873;48.818;9.422;2022-12-29T12:10:27;3.97;;;1.60;;
17510;SDS011;8873;48.818;9.422;2022-12-29T12:12:57;2.55;;;1.60;;
17510;SDS011;8873;48.818;9.422;2022-12-29T12:15:27;1.92;;;1.73;;
17510;SDS011;8873;48.818;9.422;2022-12-29T12:18:00;2.42;;;1.85;;
17510;SDS011;8873;48.818;9.422;2022-12-29T12:20:34;2.60;;;1.70;;
17510;SDS011;8873;48.818;9.422;2022-12-29T12:23:06;1.95;;;1.85;;
17510;SDS011;8873;48.818;9.422;2022-12-29T12:25:39;2.53;;;1.90;;
17510;SDS011;8873;48.818;9.422;2022-12-29T12:28:10;3.42;;;1.90;;
17510;SDS011;8873;48.818;9.422;2022-12-29T12:30:39;2.10;;;1.60;;
17510;SDS011;8873;48.818;9.422;2022-12-29T12:33:12;2.17;;;2.00;;
17510;SDS011;8873;48.818;9.422;2022-12-29T12:35:42;2.65;;;2.03;;
17510;SDS011;8873;48.818;9.422;2022-12-29T12:38:13;2.65;;;1.70;;
17510;SDS011;8873;48.818;9.422;2022-12-29T12:41:00;2.17;;;1.75;;
17510;SDS011;8873;48.818;9.422;2022-12-29T12:43:32;1.60;;;1.50;;
17510;SDS011;8873;48.818;9.422;2022-12-29T12:46:06;4.28;;;2.05;;
17510;SDS011;8873;48.818;9.422;2022-12-29T12:48:44;2.85;;;1.80;;
17510;SDS011;8873;48.818;9.422;2022-12-29T12:51:15;1.77;;;1.67;;
17510;SDS011;8873;48.818;9.422;2022-12-29T12:53:54;3.08;;;1.60;;
17510;SDS011;8873;48.818;9.422;2022-12-29T12:56:35;4.95;;;1.88;;
17510;SDS011;8873;48.818;9.422;2022-12-29T12:59:05;2.15;;;2.00;;
17510;SDS011;8873;48.818;9.422;2022-12-29T13:01:38;4.85;;;1.88;;
17510;SDS011;8873;48.818;9.422;2022-12-29T13:04:19;3.25;;;1.70;;
17510;SDS011;8873;48.818;9.422;2022-12-29T13:06:54;2.58;;;1.95;;
17510;SDS011;8873;48.818;9.422;2022-12-29T13:09:34;3.15;;;1.98;;
17510;SDS011;8873;48.818;9.422;2022-12-29T13:12:11;3.28;;;2.08;;
17510;SDS011;8873;48.818;9.422;2022-12-29T13:14:47;3.58;;;1.80;;
17510;SDS011;8873;48.818;9.422;2022-12-29T13:17:18;3.25;;;2.05;;
17510;SDS011;8873;48.818;9.422;2022-12-29T13:19:50;3.95;;;1.88;;
17510;SDS011;8873;48.818;9.422;2022-12-29T13:22:21;2.13;;;1.65;;
17510;SDS011;8873;48.818;9.422;2022-12-29T13:24:55;3.22;;;1.80;;
17510;SDS011;8873;48.818;9.422;2022-12-29T13:27:29;3.30;;;1.90;;
17510;SDS011;8873;48.818;9.422;2022-12-29T13:30:03;2.55;;;1.55;;
17510;SDS011;8873;48.818;9.422;2022-12-29T13:32:37;1.98;;;1.80;;
17510;SDS011;8873;48.818;9.422;2022-12-29T13:35:10;2.10;;;2.00;;
17510;SDS011;8873;48.818;9.422;2022-12-29T13:37:44;3.38;;;1.98;;
17510;SDS011;8873;48.818;9.422;2022-12-29T13:40:14;5.57;;;1.88;;
17510;SDS011;8873;48.818;9.422;2022-12-29T13:42:44;2.03;;;1.88;;
17510;SDS011;8873;48.818;9.422;2022-12-29T13:45:13;2.25;;;1.63;;
17510;SDS011;8873;48.818;9.422;2022-12-29T13:47:44;1.60;;;1.50;;
17510;SDS011;8873;48.818;9.422;2022-12-29T13:50:14;2.35;;;2.00;;
17510;SDS011;8873;48.818;9.422;2022-12-29T13:52:43;1.83;;;1.70;;
17510;SDS011;8873;48.818;9.422;2022-12-29T13:55:18;4.13;;;2.10;;
17510;SDS011;8873;48.818;9.422;2022-12-29T13:57:50;1.95;;;1.85;;
17510;SDS011;8873;48.818;9.422;2022-12-29T14:00:19;4.88;;;1.88;;
17510;SDS011;8873;48.818;9.422;2022-12-29T14:02:57;1.73;;;1.63;;
17510;SDS011;8873;48.818;9.422;2022-12-29T14:05:30;1.80;;;1.70;;
17510;SDS011;8873;48.818;9.422;2022-12-29T14:07:58;2.63;;;1.85;;
17510;SDS011;8873;48.818;9.422;2022-12-29T14:10:27;4.82;;;2.28;;
17510;SDS011;8873;48.818;9.422;2022-12-29T14:13:01;2.20;;;2.00;;
17510;SDS011;8873;48.818;9.422;2022-12-29T14:15:29;7.68;;;2.10;;
17510;SDS011;8873;48.818;9.422;2022-12-29T14:18:01;2.00;;;1.75;;
17510;SDS011;8873;48.818;9.422;2022-12-29T14:20:29;3.67;;;1.90;;
17510;SDS011;8873;48.818;9.422;2022-12-29T14:22:58;2.22;;;1.75;;
17510;SDS011;8873;48.818;9.422;2022-12-29T14:28:16;1.90;;;1.60;;
17510;SDS011;8873;48.818;9.422;2022-12-29T14:30:52;2.03;;;1.80;;
17510;SDS011;8873;48.818;9.422;2022-12-29T14:33:20;2.40;;;1.98;;
17510;SDS011;8873;48.818;9.422;2022-12-29T14:35:48;2.00;;;1.90;;
17510;SDS011;8873;48.818;9.422;2022-12-29T14:38:19;1.80;;;1.70;;
17510;SDS011;8873;48.818;9.422;2022-12-29T14:40:47;2.08;;;1.90;;
17510;SDS011;8873;48.818;9.422;2022-12-29T14:43:22;4.30;;;2.50;;
17510;SDS011;8873;48.818;9.422;2022-12-29T14:45:59;2.42;;;2.22;;
17510;SDS011;8873;48.818;9.422;2022-12-29T14:48:33;3.53;;;2.65;;
17510;SDS011;8873;48.818;9.422;2022-12-29T14:51:02;2.50;;;2.30;;
17510;SDS011;8873;48.818;9.422;2022-12-29T14:53:43;4.68;;;2.35;;
17510;SDS011;8873;48.818;9.422;2022-12-29T14:56:11;4.65;;;4.25;;
17510;SDS011;8873;48.818;9.422;2022-12-29T14:58:43;2.40;;;2.10;;
17510;SDS011;8873;48.818;9.422;2022-12-29T15:01:15;4.20;;;2.10;;
17510;SDS011;8873;48.818;9.422;2022-12-29T15:03:47;3.30;;;2.25;;
17510;SDS011;8873;48.818;9.422;2022-12-29T15:06:17;2.95;;;2.10;;
17510;SDS011;8873;48.818;9.422;2022-12-29T15:08:50;2.08;;;1.90;;
17510;SDS011;8873;48.818;9.422;2022-12-29T15:11:19;4.55;;;2.10;;
17510;SDS011;8873;48.818;9.422;2022-12-29T15:13:49;4.15;;;1.90;;
17510;SDS011;8873;48.818;9.422;2022-12-29T15:16:20;3.78;;;2.28;;
17510;SDS011;8873;48.818;9.422;2022-12-29T15:18:48;4.18;;;2.47;;
17510;SDS011;8873;48.818;9.422;2022-12-29T15:21:16;2.75;;;1.80;;
17510;SDS011;8873;48.818;9.422;2022-12-29T15:23:44;2.45;;;2.13;;
17510;SDS011;8873;48.818;9.422;2022-12-29T15:26:12;2.15;;;1.95;;
17510;SDS011;8873;48.818;9.422;2022-12-29T15:28:47;3.58;;;2.20;;
17510;SDS011;8873;48.818;9.422;2022-12-29T15:31:16;3.03;;;1.90;;